Time;durP1;ratioP1;P1;durP2;ratioP2;P2;SDS_P1;SDS_P2;PMS_P1;PMS_P2;Temp;Humidity;BMP_temperature;BMP_pressure;BME280_temperature;BME280_humidity;BME280_pressure;Samples;Min_cycle;Max_cycle;Signal;HPM_P1;HPM_P2
2021/10/02 00:46:43;;;;;;;30.70;17.40;;;;;;;11.68;100.00;101276.16;5051574;28;20040;-64
2021/10/02 00:49:10;;;;;;;25.58;16.48;;;;;;;11.74;100.00;101283.84;5051911;28;20025;-65
2021/10/02 00:51:38;;;;;;;37.33;19.08;;;;;;;11.81;100.00;101282.66;5051644;28;20099;-68
2021/10/02 00:54:04;;;;;;;31.77;18.45;;;;;;;11.89;100.00;101283.22;5051528;28;20029;-68
2021/10/02 00:56:29;;;;;;;33.72;17.55;;;;;;;11.99;100.00;101294.28;5051856;28;20036;-66
2021/10/02 00:58:54;;;;;;;35.63;17.40;;;;;;;12.05;100.00;101291.38;5051456;28;20412;-65
2021/10/02 01:01:26;;;;;;;33.70;17.27;;;;;;;12.06;100.00;101286.91;5052199;28;20036;-63
2021/10/02 01:04:17;;;;;;;28.60;16.08;;;;;;;12.06;100.00;101268.34;5051886;28;20025;-64
2021/10/02 01:07:06;;;;;;;26.70;15.75;;;;;;;12.00;100.00;101279.25;5051101;28;20121;-64
2021/10/02 01:10:12;;;;;;;27.00;15.75;;;;;;;11.98;100.00;101284.59;5052673;28;20033;-66
2021/10/02 01:12:59;;;;;;;23.27;14.85;;;;;;;11.98;100.00;101286.41;5055691;28;20100;-69
2021/10/02 01:15:42;;;;;;;24.40;14.77;;;;;;;11.90;100.00;101273.44;5055022;28;20081;-64
2021/10/02 01:18:33;;;;;;;24.05;14.23;;;;;;;11.82;100.00;101276.44;5055477;28;20040;-63
2021/10/02 01:21:47;;;;;;;25.80;14.35;;;;;;;11.74;100.00;101263.50;5035447;28;20384;-66
2021/10/02 01:24:33;;;;;;;28.17;14.35;;;;;;;11.68;100.00;101266.41;5037456;28;20075;-66
2021/10/02 01:27:17;;;;;;;23.70;13.65;;;;;;;11.65;100.00;101269.19;5055214;28;20035;-64
2021/10/02 01:29:44;;;;;;;23.00;13.50;;;;;;;11.66;100.00;101259.44;5054856;28;20025;-65
2021/10/02 01:32:18;;;;;;;29.00;13.40;;;;;;;11.61;100.00;101264.94;5055327;28;20021;-66
2021/10/02 01:48:39;;;;;;;25.73;12.50;;;;;;;11.33;100.00;101242.25;5052676;28;20036;-64
2021/10/02 01:51:06;;;;;;;27.23;12.95;;;;;;;11.29;100.00;101237.97;5052026;28;20157;-68
2021/10/02 01:53:36;;;;;;;22.13;11.32;;;;;;;11.24;100.00;101239.94;5052168;28;20044;-64
2021/10/02 01:56:06;;;;;;;26.73;12.18;;;;;;;11.15;100.00;101239.41;5052180;28;20056;-64
2021/10/02 01:58:33;;;;;;;21.77;10.80;;;;;;;11.12;100.00;101246.63;5032568;28;20033;-65
2021/10/02 02:01:01;;;;;;;28.75;13.10;;;;;;;11.10;100.00;101246.69;5043991;28;20029;-64
2021/10/02 02:03:29;;;;;;;21.83;11.68;;;;;;;11.09;100.00;101236.16;5052041;28;20032;-64
2021/10/02 02:05:55;;;;;;;20.90;10.82;;;;;;;11.07;100.00;101241.50;5051984;28;20036;-65
2021/10/02 02:08:24;;;;;;;24.02;10.43;;;;;;;11.06;100.00;101237.16;5051682;28;20519;-64
2021/10/02 02:10:51;;;;;;;18.92;10.32;;;;;;;11.07;100.00;101238.00;5051917;28;20066;-65
2021/10/02 02:13:16;;;;;;;21.35;11.07;;;;;;;11.03;100.00;101247.84;5052093;28;20036;-64
2021/10/02 02:15:43;;;;;;;27.05;11.80;;;;;;;11.00;100.00;101248.00;5051945;28;20040;-65
2021/10/02 02:18:15;;;;;;;24.52;10.25;;;;;;;10.99;100.00;101244.47;5051600;28;20183;-64
2021/10/02 02:20:43;;;;;;;24.00;12.15;;;;;;;10.97;100.00;101248.97;5047003;28;20099;-65
2021/10/02 02:23:11;;;;;;;22.08;11.80;;;;;;;10.97;100.00;101242.78;5053060;28;20033;-65
2021/10/02 02:25:37;;;;;;;23.58;11.25;;;;;;;10.97;100.00;101237.50;5054150;28;20033;-64
2021/10/02 02:28:04;;;;;;;25.75;10.90;;;;;;;10.99;100.00;101227.72;5053732;28;20099;-63
2021/10/02 02:30:30;;;;;;;27.65;11.80;;;;;;;10.95;100.00;101228.75;5053704;28;20029;-63
2021/10/02 02:32:56;;;;;;;24.13;11.95;;;;;;;10.91;100.00;101228.00;5053099;28;20068;-65
2021/10/02 02:35:23;;;;;;;22.98;11.77;;;;;;;10.88;100.00;101208.72;5053646;28;20052;-65
2021/10/02 02:37:48;;;;;;;22.27;11.82;;;;;;;10.80;100.00;101212.53;5053837;28;20044;-64
2021/10/02 02:40:14;;;;;;;28.08;12.32;;;;;;;10.78;100.00;101211.75;5053008;28;20035;-64
2021/10/02 02:42:41;;;;;;;24.73;11.93;;;;;;;10.71;100.00;101214.69;5053347;28;20025;-64
2021/10/02 02:45:08;;;;;;;22.60;10.77;;;;;;;10.62;100.00;101208.81;5053530;28;20033;-64
2021/10/02 02:47:39;;;;;;;25.33;12.77;;;;;;;10.65;100.00;101210.50;5053436;28;20027;-64
2021/10/02 02:50:23;;;;;;;25.63;11.82;;;;;;;10.72;100.00;101209.34;5053199;28;20024;-63
2021/10/02 02:53:15;;;;;;;24.67;10.90;;;;;;;10.73;100.00;101204.88;5053375;28;20021;-63
2021/10/02 02:55:49;;;;;;;19.20;9.73;;;;;;;10.65;100.00;101200.78;5030974;28;20033;-64
2021/10/02 02:58:17;;;;;;;29.33;11.60;;;;;;;10.61;100.00;101195.66;5031235;28;20046;-64
2021/10/02 03:00:56;;;;;;;24.83;10.68;;;;;;;10.56;100.00;101213.50;5030741;28;20044;-64
2021/10/02 03:03:30;;;;;;;26.25;11.43;;;;;;;10.54;100.00;101213.56;5031225;28;20037;-65
2021/10/02 03:06:08;;;;;;;23.10;11.43;;;;;;;10.56;100.00;101210.88;5031016;28;20041;-63
2021/10/02 03:08:38;;;;;;;27.85;12.10;;;;;;;10.61;100.00;101220.38;5031217;28;20029;-67
2021/10/02 03:11:04;;;;;;;24.27;11.75;;;;;;;10.60;100.00;101213.34;5030317;28;20029;-63
2021/10/02 03:13:35;;;;;;;29.20;12.45;;;;;;;10.60;100.00;101202.75;5030709;28;20037;-63
2021/10/02 03:16:09;;;;;;;29.95;14.25;;;;;;;10.56;100.00;101208.22;5030886;28;20036;-67
2021/10/02 03:18:38;;;;;;;38.97;16.67;;;;;;;10.56;100.00;101211.75;5031006;28;20033;-64
2021/10/02 03:21:04;;;;;;;39.92;17.95;;;;;;;10.60;100.00;101212.47;5030548;28;20469;-64
2021/10/02 03:23:30;;;;;;;39.67;17.75;;;;;;;10.62;100.00;101213.28;5030839;28;20111;-66
2021/10/02 03:25:56;;;;;;;36.67;16.60;;;;;;;10.57;100.00;101216.09;5029998;28;20053;-66
2021/10/02 03:28:22;;;;;;;37.55;17.33;;;;;;;10.52;100.00;101217.19;5030650;28;20030;-69
2021/10/02 03:30:48;;;;;;;34.58;18.10;;;;;;;10.51;100.00;101211.03;5030498;28;20083;-64
2021/10/02 03:33:14;;;;;;;35.53;18.00;;;;;;;10.50;100.00;101214.63;5031781;28;20346;-69
2021/10/02 03:35:41;;;;;;;32.60;15.95;;;;;;;10.45;100.00;101211.28;5045645;28;20045;-63
2021/10/02 03:38:06;;;;;;;39.95;18.42;;;;;;;10.44;100.00;101214.84;5052944;28;20021;-63
2021/10/02 03:40:32;;;;;;;34.35;17.23;;;;;;;10.41;100.00;101213.19;5052148;28;20047;-63
2021/10/02 03:42:58;;;;;;;42.00;18.65;;;;;;;10.38;100.00;101215.94;5052159;28;20102;-63
2021/10/02 03:45:27;;;;;;;33.70;15.68;;;;;;;10.38;100.00;101218.56;5052409;28;20104;-64
2021/10/02 03:47:52;;;;;;;33.10;15.85;;;;;;;10.38;100.00;101220.38;5052633;28;20074;-69
2021/10/02 03:50:18;;;;;;;33.80;15.23;;;;;;;10.39;100.00;101214.16;5052469;28;20108;-64
2021/10/02 03:52:44;;;;;;;37.08;16.67;;;;;;;10.37;100.00;101214.22;5052075;28;20130;-63
2021/10/02 03:55:12;;;;;;;36.10;17.08;;;;;;;10.35;100.00;101209.88;5051971;28;20029;-63
2021/10/02 03:57:38;;;;;;;29.48;15.13;;;;;;;10.32;100.00;101209.06;5052349;28;20029;-63
2021/10/02 04:00:04;;;;;;;34.15;14.13;;;;;;;10.31;100.00;101203.84;5052340;28;20571;-63
2021/10/02 04:02:30;;;;;;;32.20;15.38;;;;;;;10.26;100.00;101203.16;5052307;28;20021;-63
2021/10/02 04:04:55;;;;;;;30.05;15.20;;;;;;;10.23;100.00;101200.59;5051858;28;20039;-63
2021/10/02 04:07:20;;;;;;;31.83;14.07;;;;;;;10.20;100.00;101209.50;5052121;28;20387;-63
2021/10/02 04:09:46;;;;;;;31.17;14.13;;;;;;;10.20;100.00;101204.22;5052325;28;20460;-69
2021/10/02 04:12:11;;;;;;;26.88;13.02;;;;;;;10.22;100.00;101202.41;5051879;28;20025;-64
2021/10/02 04:14:37;;;;;;;27.17;13.43;;;;;;;10.27;100.00;101208.38;5051858;28;20029;-63
2021/10/02 04:17:03;;;;;;;28.60;12.85;;;;;;;10.30;100.00;101208.25;5051944;28;20041;-63
2021/10/02 04:19:28;;;;;;;33.45;14.55;;;;;;;10.28;100.00;101204.81;5052386;28;20038;-63
2021/10/02 04:21:54;;;;;;;30.08;14.88;;;;;;;10.26;100.00;101198.72;5052393;28;20520;-63
2021/10/02 04:24:19;;;;;;;32.80;15.45;;;;;;;10.27;100.00;101199.59;5052127;28;20478;-62
2021/10/02 04:26:45;;;;;;;38.03;14.13;;;;;;;10.23;100.00;101182.97;5051263;28;20033;-66
2021/10/02 04:29:10;;;;;;;34.22;14.70;;;;;;;10.23;100.00;101180.31;5052147;28;20119;-63
2021/10/02 04:31:36;;;;;;;34.42;14.57;;;;;;;10.22;100.00;101177.69;5052286;28;20495;-65
2021/10/02 04:34:01;;;;;;;36.05;15.77;;;;;;;10.19;100.00;101191.06;5052021;28;20033;-64
2021/10/02 04:36:27;;;;;;;36.20;16.00;;;;;;;10.24;100.00;101195.25;5051629;28;20202;-64
2021/10/02 04:38:54;;;;;;;26.30;14.57;;;;;;;10.27;100.00;101191.66;5051601;28;20039;-63
2021/10/02 04:41:19;;;;;;;33.80;14.32;;;;;;;10.28;100.00;101196.88;5052189;28;20048;-65
2021/10/02 04:43:44;;;;;;;31.42;14.50;;;;;;;10.26;100.00;101185.47;5051907;28;20021;-63
2021/10/02 04:46:11;;;;;;;31.15;15.63;;;;;;;10.25;100.00;101169.66;5055789;28;20045;-63
2021/10/02 04:48:38;;;;;;;33.15;15.07;;;;;;;10.22;100.00;101167.09;5055697;28;20047;-63
2021/10/02 04:51:04;;;;;;;33.03;15.00;;;;;;;10.23;100.00;101180.31;5055747;28;20079;-64
2021/10/02 04:53:29;;;;;;;41.58;18.33;;;;;;;10.36;100.00;101190.44;5055881;28;20079;-63
2021/10/02 04:55:58;;;;;;;41.53;17.48;;;;;;;10.42;100.00;101182.25;5055625;28;20025;-68
2021/10/02 04:58:24;;;;;;;39.33;17.67;;;;;;;10.48;100.00;101184.69;5054732;28;20381;-68
2021/10/02 05:00:49;;;;;;;37.78;16.52;;;;;;;10.48;100.00;101184.69;5055223;28;20025;-68
2021/10/02 05:03:15;;;;;;;34.42;16.52;;;;;;;10.43;100.00;101182.19;5055037;28;20494;-69
2021/10/02 05:05:40;;;;;;;48.85;19.55;;;;;;;10.42;100.00;101183.16;5054961;28;20025;-69
2021/10/02 05:08:06;;;;;;;50.28;19.88;;;;;;;10.43;100.00;101190.13;5054022;28;20021;-69
2021/10/02 05:10:31;;;;;;;45.95;19.55;;;;;;;10.41;100.00;101188.47;5053275;28;20446;-68
2021/10/02 05:12:56;;;;;;;53.22;20.15;;;;;;;10.42;100.00;101192.84;5047731;28;20060;-68
2021/10/02 05:15:22;;;;;;;58.97;21.58;;;;;;;10.48;100.00;101190.81;5047542;28;20465;-68
2021/10/02 05:17:47;;;;;;;51.50;22.20;;;;;;;10.49;100.00;101176.66;5040621;28;20036;-68
2021/10/02 05:20:12;;;;;;;50.85;21.30;;;;;;;10.51;100.00;101192.50;5054862;28;20048;-68
2021/10/02 05:22:37;;;;;;;55.45;21.67;;;;;;;10.55;100.00;101190.59;5055110;28;20049;-64
2021/10/02 05:25:03;;;;;;;49.05;22.20;;;;;;;10.59;100.00;101185.13;5054828;28;20021;-64
2021/10/02 05:27:28;;;;;;;49.53;22.50;;;;;;;10.64;100.00;101179.66;5055045;28;20056;-63
2021/10/02 05:29:54;;;;;;;53.67;23.52;;;;;;;10.70;100.00;101199.72;5054197;28;20036;-63
2021/10/02 05:32:19;;;;;;;50.03;22.42;;;;;;;10.73;100.00;101192.53;5055059;28;20021;-63
2021/10/02 05:34:44;;;;;;;52.35;23.10;;;;;;;10.73;100.00;101187.22;5054809;28;20417;-64
2021/10/02 05:37:10;;;;;;;58.92;22.58;;;;;;;10.75;100.00;101182.72;5054653;28;20041;-64
2021/10/02 05:39:35;;;;;;;44.75;20.67;;;;;;;10.74;100.00;101186.31;5054422;28;20452;-63
2021/10/02 05:42:01;;;;;;;42.08;20.27;;;;;;;10.75;100.00;101180.06;5055976;28;20029;-63
2021/10/02 05:44:26;;;;;;;51.45;21.20;;;;;;;10.72;100.00;101172.25;5054482;28;20025;-63
2021/10/02 05:46:51;;;;;;;49.20;21.10;;;;;;;10.72;100.00;101176.72;5054877;28;20033;-63
2021/10/02 05:49:17;;;;;;;43.70;20.77;;;;;;;10.73;100.00;101178.41;5054450;28;20108;-68
2021/10/02 05:51:42;;;;;;;50.47;23.25;;;;;;;10.79;100.00;101178.16;5054303;28;20021;-64
2021/10/02 05:54:09;;;;;;;45.63;22.13;;;;;;;10.83;100.00;101182.41;5054637;28;20108;-63
2021/10/02 05:56:35;;;;;;;41.33;20.25;;;;;;;10.91;100.00;101184.78;5053947;28;20036;-64
2021/10/02 05:59:00;;;;;;;38.35;18.48;;;;;;;10.98;100.00;101192.41;5054427;28;20029;-63
2021/10/02 06:01:25;;;;;;;38.53;17.75;;;;;;;10.98;100.00;101187.09;5042489;28;20064;-64
2021/10/02 06:03:51;;;;;;;36.72;16.25;;;;;;;10.98;100.00;101179.16;5040978;28;20108;-64
2021/10/02 06:06:16;;;;;;;29.77;15.43;;;;;;;10.95;100.00;101181.06;5051943;28;20025;-68
2021/10/02 06:08:41;;;;;;;30.98;14.30;;;;;;;10.96;100.00;101181.00;5050029;28;20029;-63
2021/10/02 06:11:07;;;;;;;31.92;14.98;;;;;;;10.94;100.00;101192.59;5054209;28;20094;-64
2021/10/02 06:13:35;;;;;;;27.23;14.25;;;;;;;10.92;100.00;101181.19;5054378;28;20025;-63
2021/10/02 06:16:01;;;;;;;28.80;14.02;;;;;;;10.92;100.00;101175.88;5053871;28;20029;-62
2021/10/02 06:18:27;;;;;;;26.05;13.05;;;;;;;10.97;100.00;101187.16;5054517;28;20025;-63
2021/10/02 06:20:52;;;;;;;29.45;13.77;;;;;;;10.94;100.00;101180.19;5054460;28;20020;-68
2021/10/02 06:23:18;;;;;;;29.40;13.40;;;;;;;10.92;100.00;101173.22;5051094;28;20544;-63
2021/10/02 06:25:44;;;;;;;25.10;12.98;;;;;;;10.91;100.00;101175.03;5049692;28;20094;-63
2021/10/02 06:28:09;;;;;;;27.83;12.73;;;;;;;10.91;100.00;101182.97;5050145;28;20029;-64
2021/10/02 06:30:35;;;;;;;23.95;12.00;;;;;;;10.91;100.00;101176.81;5049415;28;20040;-63
2021/10/02 06:33:00;;;;;;;27.17;13.93;;;;;;;10.92;100.00;101178.53;5048177;28;20069;-63
2021/10/02 06:35:25;;;;;;;26.30;14.02;;;;;;;10.93;100.00;101175.84;5049902;28;20079;-64
2021/10/02 06:37:51;;;;;;;33.10;14.68;;;;;;;10.95;100.00;101175.78;5047088;28;20113;-62
2021/10/02 06:40:16;;;;;;;25.38;12.55;;;;;;;10.97;100.00;101174.78;5030094;28;20461;-63
2021/10/02 06:42:42;;;;;;;24.73;12.13;;;;;;;10.99;100.00;101172.91;5033558;28;20067;-63
2021/10/02 06:45:08;;;;;;;26.75;11.43;;;;;;;11.03;100.00;101178.94;5049151;28;20184;-64
2021/10/02 06:47:33;;;;;;;21.40;11.32;;;;;;;11.06;100.00;101170.88;5049440;28;20025;-63
2021/10/02 06:50:00;;;;;;;19.55;11.40;;;;;;;11.10;99.96;101150.41;5049960;28;20107;-63
2021/10/02 06:52:26;;;;;;;24.42;12.07;;;;;;;11.14;99.57;101160.81;5049419;28;20024;-61
2021/10/02 06:54:52;;;;;;;21.38;12.15;;;;;;;11.22;99.54;101143.75;5048619;28;20329;-63
2021/10/02 06:57:17;;;;;;;19.88;11.40;;;;;;;11.26;99.50;101153.28;5047680;28;20025;-64
2021/10/02 06:59:42;;;;;;;21.08;11.50;;;;;;;11.30;98.98;101145.13;5041183;28;20442;-62
2021/10/02 07:02:08;;;;;;;19.75;10.63;;;;;;;11.33;98.12;101138.84;5036367;28;20400;-63
2021/10/02 07:04:33;;;;;;;18.70;9.35;;;;;;;11.42;97.66;101148.16;5042990;28;20090;-64
2021/10/02 07:06:58;;;;;;;19.05;9.40;;;;;;;11.38;96.60;101143.91;5048536;28;20055;-64
2021/10/02 07:09:24;;;;;;;20.45;9.75;;;;;;;11.41;95.94;101146.47;5049329;28;20111;-66
2021/10/02 07:11:51;;;;;;;17.50;9.38;;;;;;;11.41;94.92;101144.66;5049250;28;20489;-63
2021/10/02 07:14:16;;;;;;;16.77;8.57;;;;;;;11.51;95.24;101153.09;5048011;28;20033;-64
2021/10/02 07:16:41;;;;;;;19.95;8.48;;;;;;;11.51;94.28;101145.13;5045072;28;20100;-64
2021/10/02 07:19:07;;;;;;;18.45;8.80;;;;;;;11.55;94.14;101128.16;5048534;28;20345;-64
2021/10/02 07:21:32;;;;;;;17.17;8.40;;;;;;;11.59;93.23;101132.38;5049221;28;20051;-64
2021/10/02 07:23:57;;;;;;;14.43;8.00;;;;;;;11.71;93.13;101130.09;5049116;28;20025;-65
2021/10/02 07:26:23;;;;;;;13.65;7.00;;;;;;;11.74;91.43;101130.84;5048918;28;20065;-65
2021/10/02 07:28:48;;;;;;;15.13;6.95;;;;;;;11.76;91.26;101126.31;5047523;28;20416;-64
2021/10/02 07:31:13;;;;;;;18.92;7.60;;;;;;;11.85;91.25;101126.84;5049080;28;20035;-65
2021/10/02 07:33:38;;;;;;;13.75;6.72;;;;;;;11.84;89.77;101123.34;5048934;28;20556;-64
2021/10/02 07:36:04;;;;;;;15.50;6.53;;;;;;;11.82;89.24;101125.19;5047837;28;20048;-63
2021/10/02 07:38:29;;;;;;;15.48;6.70;;;;;;;11.88;88.92;101130.22;5048036;28;20046;-66
2021/10/02 07:40:57;;;;;;;14.77;6.53;;;;;;;11.91;88.39;101119.44;5048941;28;20028;-64
2021/10/02 07:43:25;;;;;;;15.35;6.95;;;;;;;12.01;88.44;101121.69;5047569;28;20053;-63
2021/10/02 07:45:50;;;;;;;14.00;6.40;;;;;;;12.05;88.50;101120.66;5048856;28;20108;-64
2021/10/02 07:48:18;;;;;;;20.13;6.20;;;;;;;12.13;88.00;101129.97;5048638;28;20116;-64
2021/10/02 07:50:44;;;;;;;10.68;5.43;;;;;;;12.24;86.95;101139.22;5048753;28;20059;-64
2021/10/02 07:53:10;;;;;;;14.73;5.70;;;;;;;12.26;85.99;101146.19;5048898;28;20431;-63
2021/10/02 07:55:36;;;;;;;14.20;5.70;;;;;;;12.33;85.88;101144.09;5048121;28;20037;-65
2021/10/02 07:58:02;;;;;;;10.85;5.70;;;;;;;12.46;85.13;101139.06;5047037;28;20491;-64
2021/10/02 08:00:27;;;;;;;12.07;5.93;;;;;;;12.46;83.79;101144.38;5048658;28;20191;-64
2021/10/02 08:02:53;;;;;;;11.10;4.82;;;;;;;12.49;83.18;101136.25;5048105;28;20033;-63
2021/10/02 08:05:19;;;;;;;9.93;5.18;;;;;;;12.57;82.11;101133.22;5048223;28;20099;-65
2021/10/02 08:07:46;;;;;;;16.70;5.32;;;;;;;12.58;81.55;101133.16;5048749;28;20043;-64
2021/10/02 08:10:14;;;;;;;15.75;5.38;;;;;;;12.64;81.40;101118.72;5047604;28;20087;-63
2021/10/02 08:12:39;;;;;;;12.80;4.68;;;;;;;12.82;81.56;101110.78;5048236;28;20403;-63
2021/10/02 08:15:06;;;;;;;16.05;5.07;;;;;;;12.89;80.12;101107.72;5042639;28;20128;-63
2021/10/02 08:17:34;;;;;;;11.90;4.50;;;;;;;13.01;80.07;101105.41;5048003;28;20048;-67
2021/10/02 08:20:08;;;;;;;14.95;4.47;;;;;;;13.13;80.09;101103.91;5050754;28;20207;-65
2021/10/02 08:22:36;;;;;;;10.68;4.25;;;;;;;13.18;78.22;101097.38;5051739;28;20067;-64
2021/10/02 08:25:02;;;;;;;9.15;3.92;;;;;;;13.18;78.10;101108.03;5051526;28;20126;-63
2021/10/02 08:27:29;;;;;;;12.93;4.10;;;;;;;13.30;77.21;101109.22;5048697;28;20088;-63
2021/10/02 08:29:56;;;;;;;12.75;4.10;;;;;;;13.36;77.76;101098.25;5047263;28;20039;-63
2021/10/02 08:32:22;;;;;;;7.70;4.13;;;;;;;13.30;77.31;101105.69;5051465;28;20057;-64
2021/10/02 08:34:47;;;;;;;12.20;4.30;;;;;;;13.38;77.93;101093.72;5051685;28;20035;-64
2021/10/02 08:37:13;;;;;;;11.65;3.90;;;;;;;13.50;75.30;101097.53;5051541;28;20048;-65
2021/10/02 08:39:38;;;;;;;11.43;4.40;;;;;;;13.59;75.36;101094.41;5051423;28;20033;-64
2021/10/02 08:42:04;;;;;;;10.95;4.60;;;;;;;13.82;75.30;101092.28;5051741;28;20025;-64
2021/10/02 08:44:30;;;;;;;9.27;4.40;;;;;;;14.23;74.37;101096.28;5050624;28;20399;-63
2021/10/02 08:46:55;;;;;;;9.73;4.00;;;;;;;14.67;70.79;101086.75;5050318;28;20036;-65
2021/10/02 08:49:38;;;;;;;12.90;4.07;;;;;;;14.98;69.31;101076.94;5045423;28;20108;-65
2021/10/02 08:52:06;;;;;;;9.10;4.35;;;;;;;15.20;65.87;101061.31;5050928;28;20094;-64
2021/10/02 08:54:37;;;;;;;12.00;4.47;;;;;;;15.25;66.48;101066.41;5049004;28;20132;-64
2021/10/02 08:57:07;;;;;;;10.73;3.70;;;;;;;15.31;65.72;101052.69;5051347;28;20033;-63
2021/10/02 08:59:34;;;;;;;11.15;4.18;;;;;;;15.27;65.10;101052.94;5059066;28;20040;-64
2021/10/02 09:02:00;;;;;;;9.00;4.13;;;;;;;15.18;66.29;101052.56;5071302;28;20139;-65
2021/10/02 09:04:25;;;;;;;12.38;3.60;;;;;;;15.08;65.64;101043.41;5041425;28;20120;-64
2021/10/02 09:06:50;;;;;;;10.55;3.50;;;;;;;15.47;64.15;101044.56;5046007;28;20032;-64
2021/10/02 09:09:17;;;;;;;9.63;3.15;;;;;;;15.80;61.92;101035.41;5038542;28;20033;-64
2021/10/02 09:11:43;;;;;;;8.77;3.60;;;;;;;15.96;62.22;101034.44;5050319;28;20093;-64
2021/10/02 09:14:10;;;;;;;7.80;3.53;;;;;;;15.74;63.05;101046.47;5050872;28;20108;-65
2021/10/02 09:16:38;;;;;;;9.45;3.30;;;;;;;15.55;64.52;101046.78;5050662;28;20043;-64
2021/10/02 09:19:08;;;;;;;10.23;4.15;;;;;;;15.52;64.81;101039.81;5045687;28;20119;-65
2021/10/02 09:21:41;;;;;;;10.43;4.53;;;;;;;15.35;65.92;101038.19;5044568;28;20068;-64
2021/10/02 09:24:20;;;;;;;10.77;4.38;;;;;;;15.18;67.56;101035.69;5050836;28;20033;-64
2021/10/02 09:26:45;;;;;;;9.82;4.78;;;;;;;14.90;67.39;101032.06;5051384;28;20456;-66
2021/10/02 09:29:10;;;;;;;13.50;5.22;;;;;;;14.79;69.19;101027.34;5050725;28;20032;-66
2021/10/02 09:31:36;;;;;;;13.02;5.18;;;;;;;14.81;69.81;101027.25;5050544;28;20564;-65
2021/10/02 09:34:01;;;;;;;14.93;5.82;;;;;;;14.79;70.01;101026.50;5050377;28;20102;-67
2021/10/02 09:36:27;;;;;;;11.75;5.65;;;;;;;14.94;69.32;101022.91;5050489;28;20194;-67
2021/10/02 09:38:53;;;;;;;13.57;6.30;;;;;;;15.08;69.50;101016.75;5050048;28;20032;-66
2021/10/02 09:41:20;;;;;;;12.18;6.05;;;;;;;15.08;67.52;101004.25;5050560;28;20029;-68
2021/10/02 09:43:55;;;;;;;12.35;6.15;;;;;;;15.11;69.68;101005.88;5049297;28;20106;-68
2021/10/02 09:46:34;;;;;;;11.02;6.00;;;;;;;15.24;68.62;101004.19;5050859;28;20073;-67
2021/10/02 09:49:00;;;;;;;13.82;6.25;;;;;;;15.26;68.81;101012.09;5048397;28;20033;-67
2021/10/02 09:51:42;;;;;;;12.55;6.93;;;;;;;15.12;68.45;101012.94;5050441;28;20104;-65
2021/10/02 09:54:30;;;;;;;16.50;7.13;;;;;;;15.04;70.22;101007.22;5047455;28;20032;-65
2021/10/02 09:57:13;;;;;;;12.52;7.00;;;;;;;14.97;71.34;101013.88;5050932;28;20054;-67
2021/10/02 09:59:39;;;;;;;15.88;8.75;;;;;;;15.00;72.07;101008.34;5048882;28;20461;-66
2021/10/02 10:02:16;;;;;;;14.93;9.20;;;;;;;14.86;72.63;101004.72;5050065;28;20122;-66
2021/10/02 10:04:55;;;;;;;15.45;10.25;;;;;;;14.81;73.67;101001.47;5050065;28;20036;-66
2021/10/02 10:07:22;;;;;;;16.63;10.38;;;;;;;14.68;74.00;100982.69;5049514;28;20098;-67
2021/10/02 10:10:08;;;;;;;16.02;10.75;;;;;;;14.61;75.09;100988.44;5050259;28;20060;-65
2021/10/02 10:12:34;;;;;;;18.42;11.32;;;;;;;14.55;74.91;100987.00;5050082;28;20017;-65
2021/10/02 10:15:00;;;;;;;20.75;11.45;;;;;;;14.50;75.84;100967.75;5050302;28;20065;-70
2021/10/02 10:17:29;;;;;;;18.95;12.07;;;;;;;14.45;76.40;100973.38;5049724;28;20029;-69
2021/10/02 10:20:07;;;;;;;17.02;12.23;;;;;;;14.51;76.66;100970.31;5050263;28;20175;-66
2021/10/02 10:22:34;;;;;;;20.55;12.65;;;;;;;14.51;75.99;100951.66;5049041;28;20028;-66
2021/10/02 10:25:09;;;;;;;18.90;12.80;;;;;;;14.52;76.98;100949.88;5043610;28;20052;-67
2021/10/02 10:27:44;;;;;;;21.13;13.27;;;;;;;14.52;77.21;100939.22;5043504;28;20040;-67
2021/10/02 10:30:19;;;;;;;21.83;13.13;;;;;;;14.61;77.44;100935.16;5048621;28;20089;-66
2021/10/02 10:32:57;;;;;;;19.33;13.07;;;;;;;14.59;77.92;100936.09;5046325;28;20162;-68
2021/10/02 10:35:25;;;;;;;17.23;12.23;;;;;;;14.71;77.62;100937.19;5044669;28;20126;-67
2021/10/02 10:37:50;;;;;;;19.50;12.40;;;;;;;14.68;77.66;100933.84;5049435;28;20113;-67
2021/10/02 10:40:16;;;;;;;21.05;12.00;;;;;;;14.67;77.48;100937.47;5049796;28;20082;-67
2021/10/02 10:42:41;;;;;;;19.50;10.23;;;;;;;14.60;77.57;100931.59;5048073;28;20040;-67
2021/10/02 10:45:07;;;;;;;16.42;9.55;;;;;;;14.57;78.17;100931.81;5048993;28;20023;-67
2021/10/02 10:47:32;;;;;;;17.23;10.20;;;;;;;14.64;78.13;100924.28;5049483;28;20490;-65
2021/10/02 10:49:58;;;;;;;15.35;9.27;;;;;;;14.68;77.78;100908.06;5049262;28;20033;-66
2021/10/02 10:52:25;;;;;;;16.30;9.48;;;;;;;14.72;77.69;100906.06;5049003;28;20496;-67
2021/10/02 10:54:52;;;;;;;16.35;9.85;;;;;;;14.77;77.28;100895.97;5049068;28;20437;-66
2021/10/02 10:57:36;;;;;;;15.90;9.32;;;;;;;14.82;77.32;100896.56;5049520;28;20120;-66
2021/10/02 11:00:37;;;;;;;18.45;9.65;;;;;;;14.99;77.58;100889.31;5049322;28;20078;-66
2021/10/02 11:03:03;;;;;;;15.68;9.95;;;;;;;14.95;76.30;100877.97;5048977;28;20460;-65
2021/10/02 11:05:35;;;;;;;16.35;10.43;;;;;;;14.85;76.95;100867.03;5047998;28;20372;-68
2021/10/02 11:08:03;;;;;;;16.98;10.27;;;;;;;14.82;77.78;100874.34;5048432;28;20441;-69
2021/10/02 11:10:40;;;;;;;15.38;9.88;;;;;;;14.79;76.90;100879.88;5038999;28;20025;-67
2021/10/02 11:13:07;;;;;;;17.17;10.57;;;;;;;14.77;76.56;100877.31;5032485;28;20021;-67
2021/10/02 11:15:32;;;;;;;16.85;10.25;;;;;;;14.89;76.64;100878.34;5048150;28;20183;-66
2021/10/02 11:17:57;;;;;;;15.23;9.35;;;;;;;15.00;75.32;100873.22;5048808;28;20155;-68
2021/10/02 11:20:25;;;;;;;17.55;9.93;;;;;;;15.10;75.87;100864.63;5048343;28;20403;-68
2021/10/02 11:23:39;;;;;;;12.85;8.75;;;;;;;15.14;74.20;100877.69;5047779;28;20036;-67
2021/10/02 11:26:10;;;;;;;14.25;9.20;;;;;;;15.26;74.58;100849.34;5005314;28;20060;-67
2021/10/02 11:28:36;;;;;;;13.90;9.00;;;;;;;15.36;74.41;100850.47;5006274;28;20550;-67
2021/10/02 11:31:12;;;;;;;15.77;8.98;;;;;;;15.32;74.41;100842.75;5005417;28;20117;-66
2021/10/02 11:33:54;;;;;;;16.83;9.40;;;;;;;15.17;75.08;100847.28;5004880;28;20022;-68
2021/10/02 11:36:31;;;;;;;15.50;10.55;;;;;;;15.21;75.91;100840.78;5004939;28;20529;-67
2021/10/02 11:39:11;;;;;;;18.70;10.68;;;;;;;15.35;76.02;100838.06;5001669;28;20056;-67
2021/10/02 11:41:47;;;;;;;14.30;9.00;;;;;;;15.55;74.05;100826.09;5006250;28;20033;-68
2021/10/02 11:44:20;;;;;;;18.00;8.13;;;;;;;15.62;73.85;100820.38;5003659;28;20112;-66
2021/10/02 11:46:45;;;;;;;12.45;7.10;;;;;;;15.78;73.15;100810.38;5012767;28;20102;-67
2021/10/02 11:49:15;;;;;;;16.23;6.90;;;;;;;15.99;71.44;100792.06;5005371;28;20117;-68
2021/10/02 11:51:41;;;;;;;11.57;6.22;;;;;;;16.19;70.81;100782.69;5006283;28;20338;-66
2021/10/02 11:54:08;;;;;;;12.57;6.30;;;;;;;16.34;69.43;100774.53;5005153;28;20040;-66
2021/10/02 11:56:35;;;;;;;12.02;6.18;;;;;;;16.46;69.10;100767.47;5004950;28;20064;-68
2021/10/02 11:59:02;;;;;;;11.43;6.30;;;;;;;16.68;68.77;100759.63;5005249;28;20038;-67
2021/10/02 12:01:32;;;;;;;10.23;6.75;;;;;;;16.94;68.75;100756.06;5012984;28;20033;-68
2021/10/02 12:04:15;;;;;;;12.93;5.80;;;;;;;17.09;67.74;100746.06;5041220;28;20028;-67
2021/10/02 12:06:43;;;;;;;10.63;5.82;;;;;;;17.08;67.52;100750.56;5047490;28;20502;-66
2021/10/02 12:09:11;;;;;;;10.52;5.32;;;;;;;16.83;68.27;100748.81;5047702;28;20025;-66
2021/10/02 12:11:51;;;;;;;13.68;5.65;;;;;;;16.35;69.73;100736.16;5047198;28;20031;-67
2021/10/02 12:14:19;;;;;;;10.77;5.80;;;;;;;16.02;72.19;100738.44;5042176;28;20037;-66
2021/10/02 12:16:54;;;;;;;10.85;5.38;;;;;;;15.77;72.88;100751.72;5039435;28;20104;-67